Latest Weather Observations for Hogan Island

IDV60801

Issued at 1:02 pm EDT Monday 22 December 2014 (issued every 30 minutes, with the page automatically refreshed every 10 minutes)

About weather observations | Map of weather stations | Latest weather observations for VIC | Other Formats
Station Details ID: 200838 Name: HOGAN ISLAND Lat: -39.22 Lon: 146.98 Height: 116.0 m
Data from the previous 72 hours. | See also: Recent months at Hogan Island
Date/Time
EDT
Temp
°C
App
Temp
°C
Dew
Point
Rel
Hum
%
Delta-T
°C
Wind Press
QNH
hPa
Press
MSL
hPa
Rain
since 9 am
mm
Dir
 
Spd
km/h
Gust
km/h
Spd
kts
Gust
kts
22/01:00pm 19.9 15.5 15.7 77 2.5 E 33 39 18 21 1013.6 - 0.0
22/12:30pm 20.3 16.4 16.5 79 2.3 E 32 35 17 19 1013.9 - 0.0
22/12:00pm 19.5 15.9 16.2 81 2.0 E 30 33 16 18 1014.2 1014.0 0.0
22/11:30am 19.5 15.5 16.2 81 2.0 E 32 35 17 19 1014.2 - 0.0
22/11:00am 19.2 14.7 16.4 84 1.7 E 35 39 19 21 1014.1 - 0.0
22/10:30am 18.6 14.8 16.8 89 1.1 E 32 35 17 19 1014.3 - 0.0
22/10:00am 17.9 14.0 16.4 91 0.9 E 32 35 17 19 1014.3 - 0.0
22/09:30am 17.7 13.8 16.4 92 0.8 ESE 32 33 17 18 1014.3 - 0.0
22/09:00am 18.4 15.2 17.2 93 0.7 ESE 30 33 16 18 1014.3 1014.1 0.0
22/08:30am 17.4 14.7 16.6 95 0.5 E 26 30 14 16 1014.2 - 0.0
22/08:00am 17.1 14.4 16.5 96 0.4 ESE 26 30 14 16 1014.0 - 0.0
22/07:30am 16.7 13.0 16.1 96 0.4 SE 30 33 16 18 1013.6 - 0.0
22/07:00am 16.4 12.7 15.9 97 0.3 SE 30 33 16 18 1013.4 - 0.0
22/06:30am 15.6 11.0 15.1 97 0.3 SE 33 39 18 21 1013.2 - 0.0
22/06:00am 15.3 11.1 14.7 96 0.3 SE 30 32 16 17 1013.2 1013.0 0.0
22/05:30am 15.3 11.1 14.7 96 0.3 SE 30 32 16 17 1013.0 - 0.0
22/05:00am 15.3 11.9 14.7 96 0.3 SE 26 30 14 16 1012.9 - 0.0
22/04:30am 15.3 13.0 14.7 96 0.3 SE 20 24 11 13 1012.9 - 0.0
22/04:00am 15.1 12.7 14.5 96 0.3 SE 20 22 11 12 1012.9 - 0.0
22/03:30am 15.2 12.8 14.4 95 0.5 SE 20 22 11 12 1013.1 - 0.0
22/03:00am 15.3 12.9 14.5 95 0.5 SE 20 24 11 13 1013.3 1013.1 0.0
22/02:30am 15.5 13.2 14.7 95 0.5 SE 20 24 11 13 1013.4 - 0.0
22/02:00am 15.4 13.6 14.4 94 0.6 SE 17 20 9 11 1013.8 - 0.0
22/01:30am 15.4 13.6 14.4 94 0.6 SE 17 19 9 10 1014.0 - 0.0
22/01:00am 15.6 13.4 14.5 93 0.6 SSE 19 20 10 11 1014.2 - 0.0
22/12:30am 15.5 14.4 14.2 92 0.7 SE 13 15 7 8 1014.4 - 0.0
22/12:00am 16.1 16.3 14.6 91 0.9 SE 7 13 4 7 1014.4 1014.2 0.0
 
Date/Time
EDT
Temp
°C
App
Temp
°C
Dew
Point
Rel
Hum
%
Delta-T
°C
Wind Press
QNH
hPa
Press
MSL
hPa
Rain
since 9 am
mm
Dir
 
Spd
km/h
Gust
km/h
Spd
kts
Gust
kts
21/11:30pm 16.9 17.3 15.4 91 0.9 NNE 7 11 4 6 1014.4 - 0.0
21/11:00pm 16.7 17.1 15.4 92 0.8 NE 7 13 4 7 1014.4 - 0.0
21/10:30pm 16.4 16.4 15.1 92 0.8 ENE 9 13 5 7 1014.3 - 0.0
21/10:00pm 16.5 15.0 15.2 92 0.8 NNE 17 22 9 12 1014.2 - 0.0
21/09:30pm 16.5 13.9 15.0 91 0.9 NNE 22 26 12 14 1013.7 - 0.0
21/09:00pm 16.1 14.0 14.6 91 0.9 NNE 19 24 10 13 1013.6 1013.4 0.0
21/08:30pm 16.3 14.5 14.5 89 1.0 NNE 17 20 9 11 1013.6 - 0.0
21/08:00pm 17.0 15.1 15.2 89 1.1 NNE 19 22 10 12 1013.4 - 0.0
21/07:30pm 17.0 14.8 15.0 88 1.2 NNE 20 24 11 13 1013.0 - 0.0
21/07:00pm 17.0 14.4 14.8 87 1.3 NE 22 28 12 15 1012.8 - 0.0
21/06:30pm 17.3 14.7 14.8 85 1.5 NE 22 28 12 15 1012.8 - 0.0
21/06:00pm 17.6 15.0 14.9 84 1.6 NE 22 28 12 15 1012.8 1012.6 0.0
21/05:30pm 18.7 16.2 15.2 80 2.1 NE 22 30 12 16 1013.1 - 0.0
21/05:00pm 18.5 15.9 15.0 80 2.1 ENE 22 28 12 15 1013.3 - 0.0
21/04:30pm 19.3 16.8 15.2 77 2.4 ENE 22 28 12 15 1014.0 - 0.0
21/04:00pm 19.6 16.9 15.5 77 2.4 ENE 24 30 13 16 1014.0 - 0.0
21/03:30pm 19.7 16.9 15.4 76 2.6 ENE 24 28 13 15 1014.3 - 0.0
21/03:00pm 18.6 15.9 14.5 77 2.4 ENE 22 28 12 15 1014.8 1014.6 0.0
21/02:30pm 19.1 16.0 14.4 74 2.7 ENE 24 28 13 15 1014.7 - 0.0
21/02:00pm 19.4 15.8 14.2 72 3.0 ENE 26 30 14 16 1015.1 - 0.0
21/01:30pm 19.6 16.4 14.2 71 3.1 ENE 24 26 13 14 1015.7 - 0.0
21/01:00pm 19.3 16.0 13.9 71 3.1 ENE 24 26 13 14 1015.6 - 0.0
21/12:30pm 19.1 16.2 13.9 72 3.0 ENE 22 26 12 14 1015.7 - 0.0
21/12:00pm 19.1 16.2 13.9 72 3.0 NE 22 28 12 15 1015.6 1015.4 0.0
21/11:30am 18.7 16.2 13.6 72 2.9 NE 19 24 10 13 1015.8 - 0.0
21/11:00am 18.3 15.8 13.4 73 2.8 NNE 19 24 10 13 1015.8 - 0.0
21/10:30am 17.7 15.2 13.4 76 2.4 NNE 19 24 10 13 1015.9 - 0.0
21/10:00am 17.3 15.1 13.4 78 2.2 NNE 17 24 9 13 1016.1 - 0.0
21/09:30am 16.5 14.6 13.0 80 2.0 NNE 15 20 8 11 1016.3 - 0.0
21/09:00am 16.4 14.9 13.1 81 1.8 NNE 13 20 7 11 1016.0 1015.8 0.0
21/08:30am 16.9 16.2 14.4 85 1.4 NE 11 15 6 8 1015.9 - 0.0
21/08:00am 15.9 16.5 14.3 90 0.9 W 4 9 2 5 1016.0 - 0.0
21/07:30am 15.0 14.7 13.4 90 0.9 WSW 7 9 4 5 1016.3 - 0.0
21/07:00am 14.4 13.3 13.0 91 0.8 WSW 11 13 6 7 1016.4 - 0.0
21/06:30am 13.6 12.2 12.2 91 0.8 W 11 13 6 7 1016.1 - 0.0
21/06:00am 13.3 12.6 12.0 92 0.7 WNW 7 11 4 6 1015.7 1015.5 0.0
21/05:30am 13.6 13.2 12.3 92 0.7 NNW 6 7 3 4 1015.4 - 0.0
21/05:00am 13.3 12.6 11.9 91 0.8 WSW 7 9 4 5 1015.1 - 0.0
21/04:30am 13.2 12.4 11.8 91 0.8 WSW 7 9 4 5 1014.9 - 0.0
21/04:00am 13.4 11.9 12.0 91 0.8 W 11 15 6 8 1015.2 - 0.0
21/03:30am 13.8 11.3 12.4 91 0.8 WNW 17 20 9 11 1015.2 - 0.0
21/03:00am 13.9 10.1 12.5 91 0.8 W 24 28 13 15 1015.4 1015.2 0.0
21/02:30am 14.0 10.3 12.6 91 0.8 W 24 30 13 16 1015.7 - 0.0
21/02:00am 13.9 9.4 12.5 91 0.8 W 28 33 15 18 1015.9 - 0.0
21/01:30am 14.0 8.7 12.6 91 0.8 W 32 35 17 19 1016.0 - 0.0
21/01:00am 14.1 9.6 12.7 91 0.8 W 28 33 15 18 1016.2 - 0.0
21/12:30am 14.2 9.8 12.8 91 0.8 W 28 32 15 17 1016.6 - 0.0
21/12:00am 14.0 9.9 12.6 91 0.8 W 26 30 14 16 1016.8 1016.6 0.0
 
Date/Time
EDT
Temp
°C
App
Temp
°C
Dew
Point
Rel
Hum
%
Delta-T
°C
Wind Press
QNH
hPa
Press
MSL
hPa
Rain
since 9 am
mm
Dir
 
Spd
km/h
Gust
km/h
Spd
kts
Gust
kts
20/11:30pm 14.3 8.9 12.9 91 0.8 W 33 39 18 21 1016.7 - 0.0
20/11:00pm 14.3 8.9 12.9 91 0.8 W 33 37 18 20 1016.8 - 0.0
20/10:30pm 14.3 8.6 12.9 91 0.8 W 35 39 19 21 1017.1 - 0.0
20/10:00pm 14.6 8.9 13.1 91 0.8 W 35 39 19 21 1017.2 - 0.0
20/09:30pm 14.5 9.3 12.9 90 0.9 W 32 37 17 20 1017.0 - 0.0
20/09:00pm 14.5 9.2 12.5 88 1.1 W 32 39 17 21 1016.8 1016.6 0.0
20/08:30pm 14.7 8.5 12.6 87 1.2 W 37 41 20 22 1016.7 - 0.0
20/08:00pm 15.2 8.2 12.5 84 1.5 W 41 46 22 25 1016.5 - 0.0
20/07:30pm 15.8 8.9 12.7 82 1.7 W 41 48 22 26 1016.3 - 0.0
20/07:00pm 15.9 8.5 12.6 81 1.8 W 43 48 23 26 1016.0 - 0.0
20/06:30pm 16.9 9.2 13.2 79 2.1 W 46 52 25 28 1015.9 - 0.0
20/06:00pm 16.8 8.9 12.7 77 2.3 W 46 54 25 29 1015.7 1015.5 0.0
20/05:30pm 17.1 8.6 13.2 78 2.2 W 50 57 27 31 1015.7 - 0.0
20/05:00pm 16.7 8.0 12.5 76 2.3 W 50 57 27 31 1015.8 - 0.0
20/04:30pm 17.7 8.8 13.0 74 2.6 W 52 59 28 32 1016.0 - 0.0
20/04:00pm 16.6 7.0 12.2 75 2.4 W 54 61 29 33 1016.2 - 0.0
20/03:30pm 17.1 7.8 12.0 72 2.8 W 52 59 28 32 1016.4 - 0.0
20/03:00pm 17.5 7.9 12.2 71 2.9 W 54 61 29 33 1016.4 1016.2 0.0
20/02:30pm 18.1 10.3 13.0 72 2.9 W 46 54 25 29 1016.6 - 0.0
20/02:00pm 17.2 8.3 11.9 71 2.9 W 50 59 27 32 1016.6 - 0.0
20/01:30pm 17.7 8.1 12.2 70 3.1 W 54 61 29 33 1016.5 - 0.0
20/01:00pm 16.2 6.4 11.4 73 2.6 W 54 61 29 33 1016.7 - 0.0
20/12:30pm 17.3 7.4 11.1 67 3.4 W 54 61 29 33 1016.8 - 0.0
20/12:00pm 17.8 8.2 10.7 63 3.8 W 52 59 28 32 1016.9 1016.7 0.0
20/11:30am 17.5 8.1 11.5 68 3.3 W 52 59 28 32 1016.9 - 0.0
20/11:00am 17.0 8.3 12.5 75 2.5 W 50 57 27 31 1016.9 - 0.0
20/10:30am 15.3 7.7 11.7 79 2.0 W 43 50 23 27 1017.0 - 0.0
20/10:00am 15.3 8.1 11.9 80 1.9 W 41 48 22 26 1017.0 - 0.0
20/09:30am 15.6 7.7 11.4 76 2.3 W 44 52 24 28 1016.9 - 0.0
20/09:00am 15.2 8.1 10.8 75 2.3 W 39 46 21 25 1016.9 1016.7 0.0
20/08:30am 15.2 7.7 10.8 75 2.3 W 41 46 22 25 1016.7 - 0.0
20/08:00am 14.8 7.4 10.0 73 2.5 W 39 50 21 27 1016.5 - 0.0
20/07:30am 14.9 7.6 10.1 73 2.5 W 39 46 21 25 1016.3 - 0.0
20/07:00am 14.6 6.9 10.0 74 2.4 W 41 48 22 26 1016.2 - 0.0
20/06:30am 14.3 6.9 9.7 74 2.4 W 39 44 21 24 1016.2 - 0.0
20/06:00am 14.0 7.2 9.4 74 2.4 W 35 41 19 22 1016.1 1015.9 0.0
20/05:30am 13.6 6.4 9.1 74 2.3 W 37 43 20 23 1016.0 - 0.0
20/05:00am 13.5 5.1 9.0 74 2.3 W 43 48 23 26 1015.8 - 0.0
20/04:30am 13.4 5.0 8.9 74 2.3 W 43 46 23 25 1015.6 - 0.0
20/04:00am 13.5 5.2 9.2 75 2.2 W 43 46 23 25 1015.5 - 0.0
20/03:30am 13.4 5.8 8.9 74 2.3 W 39 44 21 24 1015.7 - 0.0
20/03:00am 13.4 5.7 8.5 72 2.5 W 39 44 21 24 1015.9 1015.7 0.0
20/02:30am 13.5 5.0 8.4 71 2.6 WSW 43 48 23 26 1016.0 - 0.0
20/02:00am 13.6 6.1 9.3 75 2.2 WSW 39 48 21 26 1016.1 - 0.0
20/01:30am 13.6 5.7 9.3 75 2.2 W 41 52 22 28 1016.5 - 0.0
20/01:00am 13.5 5.1 9.0 74 2.3 W 43 50 23 27 1016.9 - 0.0
20/12:30am 13.4 5.3 8.7 73 2.4 WSW 41 46 22 25 1017.2 - 0.0
20/12:00am 13.4 5.2 8.3 71 2.5 W 41 44 22 24 1017.3 1017.1 0.0
 
Date/Time
EDT
Temp
°C
App
Temp
°C
Dew
Point
Rel
Hum
%
Delta-T
°C
Wind Press
QNH
hPa
Press
MSL
hPa
Rain
since 9 am
mm
Dir
 
Spd
km/h
Gust
km/h
Spd
kts
Gust
kts
19/11:30pm 13.3 4.5 8.2 71 2.5 WSW 44 50 24 27 1017.6 - 0.0
19/11:00pm 13.5 5.0 8.6 72 2.5 WSW 43 50 23 27 1017.8 - 0.0
19/10:30pm 13.4 4.7 8.3 71 2.6 WSW 44 52 24 28 1018.0 - 0.0
19/10:00pm 13.3 4.7 8.2 71 2.5 W 43 50 23 27 1017.9 - 0.0
19/09:30pm 13.5 4.7 7.9 69 2.8 WSW 44 52 24 28 1017.7 - 0.0
19/09:00pm 13.7 5.0 8.3 70 2.7 W 44 50 24 27 1017.7 1017.6 0.0
19/08:30pm 13.6 5.4 8.4 71 2.6 W 41 46 22 25 1017.5 - 0.0
19/08:00pm 14.0 5.2 8.2 68 2.9 W 44 50 24 27 1017.4 - 0.0
19/07:30pm 14.4 5.2 8.1 66 3.2 W 46 54 25 29 1017.0 - 0.0
19/07:00pm 15.2 5.7 8.2 63 3.5 W 48 57 26 31 1016.8 - 0.0
19/06:30pm 15.5 6.0 8.3 62 3.7 W 48 57 26 31 1016.4 - 0.0
19/06:00pm 15.0 4.9 7.5 61 3.7 W 50 57 27 31 1016.1 1015.9 0.0
19/05:30pm 16.0 6.5 8.2 60 4.0 WSW 48 54 26 29 1016.0 - 0.0
19/05:00pm 15.9 5.9 7.9 59 4.0 W 50 57 27 31 1015.9 - 0.0
19/04:30pm 16.5 7.3 8.2 58 4.2 W 46 54 25 29 1016.0 - 0.0
19/04:00pm 16.8 7.5 9.0 60 4.1 WSW 48 56 26 30 1016.0 - 0.0
19/03:30pm 16.8 7.1 7.4 54 4.7 WSW 48 57 26 31 1015.9 - 0.0
19/03:00pm 16.9 7.2 7.3 53 4.8 WSW 48 57 26 31 1015.8 1015.6 0.0
19/02:30pm 16.4 7.2 6.5 52 4.9 WSW 44 54 24 29 1015.7 - 0.0
19/02:00pm 16.0 7.3 8.5 61 3.8 WSW 44 54 24 29 1015.8 - 0.0
19/01:30pm 16.3 7.5 7.3 55 4.5 WSW 43 50 23 27 1015.6 - 0.0

Other Formats:

Comma delimited format used in spreadsheet applications
http://www.bom.gov.au/fwo/IDV60801/IDV60801.94949.axf

JavaScript Object Notation format (JSON) in row-major order
http://www.bom.gov.au/fwo/IDV60801/IDV60801.94949.json